createdAt,value
2022-11-24T00:01:27.180Z,90.98
2022-11-24T00:03:55.568Z,90.87
2022-11-24T00:06:18.176Z,90.71
2022-11-24T00:08:42.313Z,90.82
2022-11-24T00:11:10.050Z,90.52
2022-11-24T00:13:34.034Z,90.60
2022-11-24T00:16:05.302Z,90.66
2022-11-24T00:18:28.200Z,90.65
2022-11-24T00:20:53.706Z,91.02
2022-11-24T00:23:16.354Z,90.91
2022-11-24T00:25:38.958Z,90.98
2022-11-24T00:28:02.005Z,90.47
2022-11-24T00:30:24.843Z,90.97
2022-11-24T00:32:47.632Z,91.04
2022-11-24T00:35:10.425Z,90.89
2022-11-24T00:37:33.130Z,90.97
2022-11-24T00:39:55.936Z,91.00
2022-11-24T00:42:18.913Z,90.75
2022-11-24T00:44:41.536Z,90.65
2022-11-24T00:47:04.434Z,90.31
2022-11-24T00:49:27.370Z,90.53
2022-11-24T00:51:50.069Z,91.05
2022-11-24T00:54:12.683Z,90.87
2022-11-24T00:56:35.404Z,90.81
2022-11-24T00:58:58.419Z,90.96
2022-11-24T01:01:24.056Z,90.93
2022-11-24T01:03:47.613Z,90.99
2022-11-24T01:06:13.386Z,91.27
2022-11-24T01:08:39.974Z,90.99
2022-11-24T01:11:20.654Z,90.71
2022-11-24T01:13:47.386Z,90.86
2022-11-24T01:16:22.519Z,90.77
2022-11-24T01:18:45.830Z,90.77
2022-11-24T01:21:10.291Z,90.70
2022-11-24T01:23:33.375Z,90.95
2022-11-24T01:25:56.192Z,90.94
2022-11-24T01:28:18.793Z,90.55
2022-11-24T01:30:41.460Z,90.63
2022-11-24T01:33:04.202Z,90.60
2022-11-24T01:35:26.811Z,90.28
2022-11-24T01:37:49.392Z,90.56
2022-11-24T01:40:13.295Z,90.33
2022-11-24T01:42:52.685Z,90.63
2022-11-24T01:45:35.786Z,90.47
2022-11-24T01:47:59.977Z,90.53
2022-11-24T01:50:24.090Z,90.45
2022-11-24T01:52:54.095Z,90.50
2022-11-24T01:55:21.533Z,90.29
2022-11-24T01:57:53.090Z,90.39
2022-11-24T02:00:16.394Z,90.13
2022-11-24T02:02:42.004Z,90.46
2022-11-24T02:05:12.971Z,89.94
2022-11-24T02:07:37.122Z,89.73
2022-11-24T02:10:03.019Z,90.17
2022-11-24T02:12:27.273Z,90.74
2022-11-24T02:14:51.179Z,90.14
2022-11-24T02:17:13.978Z,90.20
2022-11-24T02:19:57.591Z,89.71
2022-11-24T02:22:22.912Z,89.68
2022-11-24T02:24:48.874Z,89.75
2022-11-24T02:27:12.043Z,89.71
2022-11-24T02:29:34.796Z,89.70
2022-11-24T02:32:01.384Z,89.64
2022-11-24T02:34:23.873Z,89.66
2022-11-24T02:36:46.450Z,89.26
2022-11-24T02:39:16.272Z,89.38
2022-11-24T02:41:42.953Z,88.96
2022-11-24T02:44:05.691Z,88.92
2022-11-24T02:46:48.791Z,88.91
2022-11-24T02:49:32.114Z,89.07
2022-11-24T02:51:54.658Z,89.40
2022-11-24T02:54:17.239Z,89.79
2022-11-24T02:56:39.781Z,89.65
2022-11-24T02:59:02.318Z,89.43
2022-11-24T03:01:24.884Z,89.21
2022-11-24T03:03:47.647Z,89.66
2022-11-24T03:06:10.267Z,89.88
2022-11-24T03:08:32.864Z,90.03
2022-11-24T03:10:55.483Z,89.59
2022-11-24T03:13:18.114Z,89.46
2022-11-24T03:15:41.368Z,89.74
2022-11-24T03:18:05.244Z,89.77
2022-11-24T03:20:28.283Z,89.39
2022-11-24T03:22:50.927Z,89.45
2022-11-24T03:25:13.446Z,89.19
2022-11-24T03:27:36.341Z,89.07
2022-11-24T03:29:59.376Z,89.49
2022-11-24T03:32:22.036Z,89.41
2022-11-24T03:34:44.675Z,88.95
2022-11-24T03:37:07.736Z,88.79
2022-11-24T03:39:30.581Z,88.59
2022-11-24T03:41:53.332Z,88.64
2022-11-24T03:44:16.107Z,88.91
2022-11-24T03:46:39.138Z,88.53
2022-11-24T03:49:01.901Z,87.66
2022-11-24T03:51:24.837Z,87.19
2022-11-24T03:53:47.626Z,86.40
2022-11-24T03:56:10.167Z,86.53
2022-11-24T03:58:32.847Z,85.86
2022-11-24T04:00:56.143Z,86.50
2022-11-24T04:03:19.231Z,85.45
2022-11-24T04:05:41.868Z,85.69
2022-11-24T04:08:05.564Z,86.10
2022-11-24T04:10:28.072Z,85.28
2022-11-24T04:12:50.571Z,85.21
2022-11-24T04:15:19.254Z,85.72
2022-11-24T04:17:43.262Z,84.81
2022-11-24T04:20:06.710Z,85.91
2022-11-24T04:22:29.455Z,85.71
2022-11-24T04:24:51.880Z,86.33
2022-11-24T04:27:14.493Z,85.70
2022-11-24T04:29:39.832Z,85.15
2022-11-24T04:32:02.389Z,85.15
2022-11-24T04:34:24.829Z,85.49
2022-11-24T04:36:47.421Z,85.23
2022-11-24T04:39:23.939Z,85.87
2022-11-24T04:41:48.836Z,85.76
2022-11-24T04:44:11.418Z,85.82
2022-11-24T04:46:34.141Z,85.44
2022-11-24T04:48:56.651Z,85.00
2022-11-24T04:51:19.226Z,85.91
2022-11-24T04:53:41.839Z,85.74
2022-11-24T04:56:06.301Z,85.87
2022-11-24T04:58:28.954Z,85.75
2022-11-24T05:00:51.817Z,85.97
2022-11-24T05:03:14.382Z,85.71
2022-11-24T05:05:36.938Z,85.93
2022-11-24T05:08:00.470Z,86.15
2022-11-24T05:10:35.388Z,86.19
2022-11-24T05:12:59.550Z,86.04
2022-11-24T05:15:22.272Z,86.12
2022-11-24T05:17:45.035Z,85.56
2022-11-24T05:20:08.413Z,85.81
2022-11-24T05:22:31.825Z,85.41
2022-11-24T05:24:54.500Z,86.01
2022-11-24T05:27:17.236Z,86.00
2022-11-24T05:29:39.866Z,85.93
2022-11-24T05:32:02.660Z,85.89
2022-11-24T05:34:25.564Z,85.79
2022-11-24T05:36:54.439Z,85.43
2022-11-24T05:39:17.160Z,85.90
2022-11-24T05:41:39.815Z,84.98
2022-11-24T05:44:02.449Z,85.07
2022-11-24T05:46:25.234Z,85.28
2022-11-24T05:48:47.868Z,84.78
2022-11-24T05:51:10.456Z,84.91
2022-11-24T05:53:33.033Z,84.33
2022-11-24T05:55:55.597Z,85.12
2022-11-24T05:58:18.293Z,84.46
2022-11-24T06:00:41.368Z,84.00
2022-11-24T06:03:04.177Z,83.94
2022-11-24T06:05:28.284Z,84.81
2022-11-24T06:07:52.373Z,84.35
2022-11-24T06:10:16.902Z,83.93
2022-11-24T06:12:39.490Z,84.19
2022-11-24T06:15:02.828Z,83.93
2022-11-24T06:17:26.275Z,84.51
2022-11-24T06:19:50.260Z,83.76
2022-11-24T06:22:13.001Z,83.34
2022-11-24T06:24:36.059Z,83.60
2022-11-24T06:26:58.922Z,83.32
2022-11-24T06:29:22.052Z,82.89
2022-11-24T06:31:44.657Z,83.13
2022-11-24T06:34:08.547Z,82.62
2022-11-24T06:36:34.429Z,82.40
2022-11-24T06:38:57.359Z,82.89
2022-11-24T06:41:20.562Z,82.05
2022-11-24T06:43:43.796Z,83.05
2022-11-24T06:46:06.922Z,83.11
2022-11-24T06:48:30.923Z,82.59
2022-11-24T06:50:54.284Z,82.64
2022-11-24T06:53:17.945Z,83.00
2022-11-24T06:55:44.189Z,82.84
2022-11-24T06:58:07.796Z,83.46
2022-11-24T07:00:32.232Z,83.16
2022-11-24T07:02:54.913Z,83.24
2022-11-24T07:05:17.561Z,83.44
2022-11-24T07:07:40.305Z,83.11
2022-11-24T07:10:02.966Z,82.80
2022-11-24T07:12:25.774Z,82.26
2022-11-24T07:14:49.363Z,82.32
2022-11-24T07:17:11.937Z,81.76
2022-11-24T07:19:34.650Z,81.72
2022-11-24T07:21:58.426Z,81.04
2022-11-24T07:24:21.411Z,82.34
2022-11-24T07:26:43.977Z,81.19
2022-11-24T07:29:06.508Z,82.40
2022-11-24T07:31:29.178Z,82.39
2022-11-24T07:33:53.731Z,81.76
2022-11-24T07:36:16.404Z,82.07
2022-11-24T07:38:38.960Z,82.11
2022-11-24T07:41:04.599Z,81.75
2022-11-24T07:43:27.399Z,81.81
2022-11-24T07:45:53.263Z,81.54
2022-11-24T07:48:15.929Z,81.62
2022-11-24T07:50:41.508Z,81.32
2022-11-24T07:53:14.172Z,80.85
2022-11-24T07:55:37.062Z,81.54
2022-11-24T07:58:01.138Z,81.72
2022-11-24T08:00:24.057Z,81.29
2022-11-24T08:02:46.921Z,81.96
2022-11-24T08:05:09.849Z,82.03
2022-11-24T08:07:33.300Z,82.00
2022-11-24T08:09:56.104Z,81.94
2022-11-24T08:12:21.874Z,82.73
2022-11-24T08:14:44.556Z,82.24
2022-11-24T08:17:07.309Z,82.24
2022-11-24T08:19:32.332Z,82.35
2022-11-24T08:21:54.888Z,82.14
2022-11-24T08:24:17.938Z,82.23
2022-11-24T08:26:40.725Z,82.28
2022-11-24T08:29:12.680Z,82.33
2022-11-24T08:31:38.841Z,82.73
2022-11-24T08:34:03.023Z,82.32
2022-11-24T08:36:26.063Z,81.93
2022-11-24T08:38:49.882Z,81.63
2022-11-24T08:41:16.016Z,81.33
2022-11-24T08:43:39.032Z,81.35
2022-11-24T08:46:03.856Z,80.96
2022-11-24T08:48:26.841Z,80.68
2022-11-24T08:50:49.555Z,80.42
2022-11-24T08:53:12.457Z,79.94
2022-11-24T08:55:35.553Z,79.82
2022-11-24T08:57:58.478Z,79.45
2022-11-24T09:00:25.496Z,80.23
2022-11-24T09:02:58.461Z,80.79
2022-11-24T09:05:50.006Z,80.25
2022-11-24T09:08:04.953Z,80.45
2022-11-24T09:10:27.555Z,79.52
2022-11-24T09:12:51.369Z,79.60
2022-11-24T09:15:16.449Z,80.72
2022-11-24T09:17:39.348Z,80.22
2022-11-24T09:20:02.147Z,80.06
2022-11-24T09:22:25.129Z,80.56
2022-11-24T09:24:48.133Z,80.11
2022-11-24T09:27:10.875Z,80.12
2022-11-24T09:29:33.839Z,80.82
2022-11-24T09:31:59.653Z,80.43
2022-11-24T09:34:26.228Z,80.87
2022-11-24T09:36:51.877Z,80.66
2022-11-24T09:39:14.675Z,80.15
2022-11-24T09:41:51.145Z,81.59
2022-11-24T09:44:41.650Z,80.60
2022-11-24T09:47:17.134Z,80.64
2022-11-24T09:49:47.241Z,80.54
2022-11-24T09:52:18.060Z,80.35
2022-11-24T09:54:49.576Z,80.81
2022-11-24T09:57:14.480Z,80.55
2022-11-24T09:59:37.917Z,80.46
2022-11-24T10:02:00.933Z,79.83
2022-11-24T10:04:30.484Z,80.01
2022-11-24T10:07:28.173Z,80.26
2022-11-24T10:10:10.203Z,79.70
2022-11-24T10:13:20.866Z,79.51
2022-11-24T10:15:52.014Z,79.63
2022-11-24T10:18:24.280Z,78.51
2022-11-24T10:21:19.958Z,79.46
2022-11-24T10:23:51.780Z,79.34
2022-11-24T10:26:22.629Z,78.63
2022-11-24T10:28:53.516Z,78.51
2022-11-24T10:31:29.108Z,78.36
2022-11-24T10:33:52.084Z,78.77
2022-11-24T10:36:26.965Z,77.85
2022-11-24T10:39:01.821Z,77.93
2022-11-24T10:41:51.009Z,78.18
2022-11-24T10:44:15.088Z,78.60
2022-11-24T10:46:39.635Z,78.82
2022-11-24T10:49:05.249Z,78.09
2022-11-24T10:51:30.833Z,78.31
2022-11-24T10:54:01.471Z,77.05
2022-11-24T10:56:24.331Z,77.96
2022-11-24T10:58:47.769Z,77.20
2022-11-24T11:01:13.632Z,77.04
2022-11-24T11:03:47.212Z,76.67
2022-11-24T11:06:15.329Z,77.38
2022-11-24T11:08:43.297Z,77.16
2022-11-24T11:11:29.338Z,77.01
2022-11-24T11:14:04.597Z,77.09
2022-11-24T11:16:39.151Z,76.95
2022-11-24T11:19:20.280Z,76.40
2022-11-24T11:21:48.848Z,76.93
2022-11-24T11:24:18.289Z,76.90
2022-11-24T11:26:42.691Z,77.67
2022-11-24T11:35:00.101Z,78.92
2022-11-24T11:37:29.229Z,78.15
2022-11-24T11:39:54.415Z,78.45
2022-11-24T11:45:26.809Z,78.03
2022-11-24T11:48:13.564Z,78.36
2022-11-24T11:51:22.137Z,78.54
2022-11-24T11:54:13.293Z,78.19
2022-11-24T11:56:48.411Z,78.16
2022-11-24T11:59:35.436Z,78.61
2022-11-24T12:02:33.419Z,78.05
2022-11-24T12:05:10.920Z,76.85
2022-11-24T12:07:49.751Z,77.16
2022-11-24T12:10:24.657Z,76.09
2022-11-24T12:13:03.400Z,76.37
2022-11-24T12:15:36.171Z,75.60
2022-11-24T12:18:33.484Z,75.90
2022-11-24T12:21:28.752Z,75.72
2022-11-24T12:24:10.552Z,76.39
2022-11-24T12:26:52.238Z,76.83
2022-11-24T12:29:24.854Z,77.01
2022-11-24T12:32:45.073Z,77.40
2022-11-24T12:35:36.233Z,77.89
2022-11-24T12:38:29.304Z,78.20
2022-11-24T12:44:12.295Z,79.32
2022-11-24T12:46:59.278Z,78.54
2022-11-24T12:49:40.134Z,79.17
2022-11-24T12:52:18.490Z,79.88
2022-11-24T12:54:44.774Z,79.54
2022-11-24T12:57:21.900Z,78.92
2022-11-24T13:00:10.930Z,78.76
2022-11-24T13:03:07.797Z,77.88
2022-11-24T13:05:55.326Z,77.51
2022-11-24T13:08:19.227Z,77.80
2022-11-24T13:10:58.232Z,78.00
2022-11-24T13:13:26.684Z,78.29
2022-11-24T13:18:57.561Z,78.03
2022-11-24T13:21:50.591Z,77.59
2022-11-24T13:24:17.277Z,76.57
2022-11-24T13:27:13.831Z,76.84
2022-11-24T13:29:39.094Z,76.55
2022-11-24T13:32:07.481Z,76.49
2022-11-24T13:34:39.676Z,76.48
2022-11-24T13:37:31.983Z,76.42
2022-11-24T13:39:59.601Z,77.01
2022-11-24T13:42:41.713Z,77.07
2022-11-24T13:45:38.935Z,76.77
2022-11-24T13:48:02.012Z,76.57
2022-11-24T13:50:51.254Z,76.67
2022-11-24T13:53:35.268Z,77.46
2022-11-24T13:55:58.079Z,77.21
2022-11-24T13:58:39.468Z,77.12
2022-11-24T14:01:18.300Z,77.33
2022-11-24T14:04:21.741Z,77.75
2022-11-24T14:06:42.846Z,77.37
2022-11-24T14:09:35.797Z,78.29
2022-11-24T14:12:00.160Z,77.51
2022-11-24T14:14:23.984Z,77.71
2022-11-24T14:16:46.600Z,78.16
2022-11-24T14:19:11.098Z,78.63
2022-11-24T14:21:37.892Z,78.53
2022-11-24T14:24:25.105Z,78.47
2022-11-24T14:26:47.948Z,78.98
2022-11-24T14:29:21.242Z,79.03
2022-11-24T14:31:53.830Z,78.81
2022-11-24T14:34:21.113Z,78.99
2022-11-24T14:36:43.960Z,79.33
2022-11-24T14:39:11.219Z,79.23
2022-11-24T14:41:34.337Z,79.64
2022-11-24T14:44:08.611Z,79.90
2022-11-24T14:46:31.504Z,79.84
2022-11-24T14:48:54.660Z,79.87
2022-11-24T14:51:25.747Z,79.99
2022-11-24T14:53:52.337Z,79.80
2022-11-24T14:56:26.799Z,79.46
2022-11-24T14:58:49.349Z,80.34
2022-11-24T15:01:30.067Z,79.85
2022-11-24T15:04:46.411Z,80.29
2022-11-24T15:07:18.909Z,80.37
2022-11-24T15:09:47.582Z,80.94
2022-11-24T15:12:23.172Z,81.01
2022-11-24T15:14:54.704Z,82.18
2022-11-24T15:17:23.563Z,82.28
2022-11-24T15:20:16.672Z,83.42
2022-11-24T15:22:42.493Z,83.19
2022-11-24T15:25:32.523Z,84.22
2022-11-24T15:27:55.380Z,84.04
2022-11-24T15:30:17.960Z,84.70
2022-11-24T15:32:49.494Z,84.62
2022-11-24T15:35:12.208Z,85.13
2022-11-24T15:37:34.796Z,85.57
2022-11-24T15:39:57.589Z,85.32
2022-11-24T15:42:20.233Z,85.72
2022-11-24T15:44:42.812Z,85.72
2022-11-24T15:47:05.463Z,85.68
2022-11-24T15:49:28.229Z,85.78
2022-11-24T15:51:50.933Z,86.21
2022-11-24T15:54:17.880Z,86.61
2022-11-24T15:56:42.149Z,86.44
2022-11-24T15:59:04.971Z,86.54
2022-11-24T16:01:31.556Z,86.19
2022-11-24T16:03:54.527Z,86.44
2022-11-24T16:06:24.619Z,85.98
2022-11-24T16:08:48.009Z,86.10
2022-11-24T16:11:10.516Z,86.74
2022-11-24T16:13:33.230Z,86.68
2022-11-24T16:15:55.818Z,86.36
2022-11-24T16:18:18.418Z,86.49
2022-11-24T16:20:41.282Z,86.60
2022-11-24T16:23:04.459Z,86.57
2022-11-24T16:25:27.145Z,86.48
2022-11-24T16:27:49.851Z,86.50
2022-11-24T16:30:13.125Z,86.97
2022-11-24T16:32:35.888Z,87.31
2022-11-24T16:34:58.613Z,87.43
2022-11-24T16:37:21.796Z,87.91
2022-11-24T16:39:49.801Z,87.97
2022-11-24T16:42:12.963Z,87.90
2022-11-24T16:44:35.830Z,87.88
2022-11-24T16:46:58.649Z,88.01
2022-11-24T16:49:21.610Z,87.96
2022-11-24T16:51:44.272Z,88.07
2022-11-24T16:54:06.937Z,87.89
2022-11-24T16:56:30.418Z,88.48
2022-11-24T16:58:53.856Z,88.10
2022-11-24T17:01:16.904Z,88.37
2022-11-24T17:03:40.081Z,88.21
2022-11-24T17:06:03.371Z,88.20
2022-11-24T17:08:26.447Z,88.28
2022-11-24T17:10:49.331Z,88.21
2022-11-24T17:13:11.949Z,88.48
2022-11-24T17:15:44.509Z,88.35
2022-11-24T17:18:24.157Z,88.43
2022-11-24T17:20:47.744Z,88.35
2022-11-24T17:23:10.552Z,88.19
2022-11-24T17:25:34.560Z,87.95
2022-11-24T17:28:17.417Z,88.38
2022-11-24T17:30:40.420Z,87.98
2022-11-24T17:33:03.029Z,88.18
2022-11-24T17:35:26.189Z,88.18
2022-11-24T17:37:48.978Z,87.98
2022-11-24T17:40:28.531Z,88.03
2022-11-24T17:42:51.962Z,88.20
2022-11-24T17:45:14.644Z,88.21
2022-11-24T17:47:38.006Z,88.18
2022-11-24T17:50:03.030Z,88.36
2022-11-24T17:52:26.061Z,88.36
2022-11-24T17:54:48.881Z,88.32
2022-11-24T17:57:12.029Z,88.21
2022-11-24T17:59:34.822Z,88.19
2022-11-24T18:01:57.822Z,88.39
2022-11-24T18:04:20.468Z,88.23
2022-11-24T18:06:43.264Z,87.92
2022-11-24T18:09:06.258Z,87.71
2022-11-24T18:11:32.080Z,87.74
2022-11-24T18:14:00.561Z,87.91
2022-11-24T18:16:25.006Z,87.88
2022-11-24T18:18:50.411Z,88.16
2022-11-24T18:21:16.699Z,88.22
2022-11-24T18:23:39.770Z,87.92
2022-11-24T18:26:05.372Z,88.02
2022-11-24T18:28:28.673Z,88.05
2022-11-24T18:31:00.011Z,88.28
2022-11-24T18:33:23.095Z,88.39
2022-11-24T18:36:01.093Z,88.06
2022-11-24T18:38:24.209Z,88.38
2022-11-24T18:40:52.421Z,88.24
2022-11-24T18:43:15.532Z,88.34
2022-11-24T18:45:38.623Z,88.43
2022-11-24T18:48:01.515Z,88.46
2022-11-24T18:50:24.643Z,88.72
2022-11-24T18:52:48.015Z,88.57
2022-11-24T18:55:10.900Z,88.50
2022-11-24T18:57:33.715Z,88.64
2022-11-24T18:59:56.938Z,88.84
2022-11-24T19:02:20.071Z,88.67
2022-11-24T19:04:42.951Z,88.92
2022-11-24T19:07:05.835Z,88.83
2022-11-24T19:09:28.928Z,88.82
2022-11-24T19:11:51.672Z,88.98
2022-11-24T19:14:16.654Z,88.95
2022-11-24T19:16:40.609Z,88.75
2022-11-24T19:19:04.425Z,88.75
2022-11-24T19:21:28.583Z,88.53
2022-11-24T19:23:52.513Z,88.00
2022-11-24T19:26:15.906Z,88.04
2022-11-24T19:28:38.869Z,88.09
2022-11-24T19:31:04.728Z,87.87
2022-11-24T19:33:27.850Z,87.46
2022-11-24T19:36:10.744Z,87.50
2022-11-24T19:38:35.377Z,87.37
2022-11-24T19:41:12.548Z,86.98
2022-11-24T19:43:36.065Z,87.00
2022-11-24T19:46:10.664Z,86.60
2022-11-24T19:48:39.516Z,86.56
2022-11-24T19:51:08.012Z,86.21
2022-11-24T19:53:31.473Z,86.30
2022-11-24T19:55:54.284Z,86.18
2022-11-24T19:58:17.333Z,86.45
2022-11-24T20:00:40.105Z,86.63
2022-11-24T20:03:03.150Z,86.51
2022-11-24T20:05:25.707Z,86.84
2022-11-24T20:07:48.633Z,86.70
2022-11-24T20:10:11.263Z,86.78
2022-11-24T20:12:34.239Z,86.37
2022-11-24T20:14:57.156Z,86.28
2022-11-24T20:17:20.492Z,85.97
2022-11-24T20:19:43.308Z,86.46
2022-11-24T20:22:06.120Z,86.35
2022-11-24T20:24:28.939Z,86.39
2022-11-24T20:26:58.354Z,85.62
2022-11-24T20:29:21.460Z,85.74
2022-11-24T20:31:49.165Z,86.35
2022-11-24T20:34:13.136Z,86.52
2022-11-24T20:36:37.873Z,86.19
2022-11-24T20:39:03.991Z,86.53
2022-11-24T20:41:29.684Z,86.84
2022-11-24T20:43:54.158Z,86.81
2022-11-24T20:46:21.364Z,86.89
2022-11-24T20:48:44.865Z,86.81
2022-11-24T20:51:29.604Z,87.01
2022-11-24T20:53:55.238Z,87.00
2022-11-24T20:56:20.992Z,86.85
2022-11-24T20:58:44.251Z,87.01
2022-11-24T21:01:11.591Z,86.18
2022-11-24T21:03:39.688Z,85.98
2022-11-24T21:06:06.971Z,86.27
2022-11-24T21:08:33.871Z,85.89
2022-11-24T21:10:58.244Z,85.69
2022-11-24T21:13:21.160Z,85.83
2022-11-24T21:15:44.019Z,85.65
2022-11-24T21:18:06.774Z,85.69
2022-11-24T21:20:29.798Z,85.82
2022-11-24T21:22:52.921Z,85.83
2022-11-24T21:25:15.809Z,86.05
2022-11-24T21:27:38.592Z,85.86
2022-11-24T21:30:02.047Z,85.66
2022-11-24T21:32:26.600Z,85.71
2022-11-24T21:34:49.429Z,85.73
2022-11-24T21:37:12.165Z,86.12
2022-11-24T21:39:36.471Z,86.52
2022-11-24T21:41:59.115Z,86.50
2022-11-24T21:44:22.037Z,86.93
2022-11-24T21:46:49.598Z,86.98
2022-11-24T21:49:16.925Z,87.25
2022-11-24T21:51:39.515Z,87.78
2022-11-24T21:54:02.204Z,87.88
2022-11-24T21:56:25.049Z,88.10
2022-11-24T21:58:50.746Z,88.25
2022-11-24T22:01:14.493Z,88.61
2022-11-24T22:03:37.761Z,88.61
2022-11-24T22:06:01.216Z,88.50
2022-11-24T22:08:32.775Z,88.66
2022-11-24T22:11:01.735Z,88.46
2022-11-24T22:13:24.271Z,88.47
2022-11-24T22:15:46.864Z,88.20
2022-11-24T22:18:21.186Z,88.32
2022-11-24T22:20:43.879Z,88.59
2022-11-24T22:23:06.368Z,88.31
2022-11-24T22:25:28.892Z,88.15
2022-11-24T22:27:51.593Z,88.11
2022-11-24T22:30:15.168Z,87.50
2022-11-24T22:32:37.890Z,87.01
2022-11-24T22:35:00.488Z,87.29
2022-11-24T22:37:23.236Z,87.07
2022-11-24T22:39:45.986Z,86.71
2022-11-24T22:42:08.579Z,86.75
2022-11-24T22:44:31.111Z,86.90
2022-11-24T22:46:53.755Z,87.07
2022-11-24T22:49:16.380Z,87.06
2022-11-24T22:51:39.448Z,87.07
2022-11-24T22:54:04.337Z,87.13
2022-11-24T22:56:32.480Z,87.20
2022-11-24T22:58:55.373Z,87.56
2022-11-24T23:01:20.273Z,87.34
2022-11-24T23:03:43.416Z,87.18
2022-11-24T23:06:08.562Z,87.25
2022-11-24T23:08:33.809Z,87.29
2022-11-24T23:11:04.213Z,87.46
2022-11-24T23:13:27.018Z,87.25
2022-11-24T23:15:49.663Z,86.83
2022-11-24T23:18:12.862Z,87.34
2022-11-24T23:20:35.468Z,87.57
2022-11-24T23:22:58.052Z,87.98
2022-11-24T23:25:20.588Z,88.11
2022-11-24T23:27:43.196Z,88.89
2022-11-24T23:30:06.616Z,88.64
2022-11-24T23:32:29.919Z,89.01
2022-11-24T23:34:52.470Z,88.91
2022-11-24T23:37:15.288Z,89.24
2022-11-24T23:39:38.527Z,89.08
2022-11-24T23:42:01.107Z,88.88
2022-11-24T23:44:23.659Z,89.08
2022-11-24T23:46:46.431Z,88.63
2022-11-24T23:49:09.115Z,88.71
2022-11-24T23:51:32.889Z,88.72
2022-11-24T23:53:56.288Z,88.81
2022-11-24T23:56:21.522Z,89.12
2022-11-24T23:58:44.481Z,89.63
